Relevés horaires Schaffen (Belgique)


Relevés horaires à Schaffen - Mercredi 07 Avr. 2021
Heure UTC1 Température [°C] Vent [km/h] Hum. [%] Pres.4 [hPa] Visi. [Km] Nébu. [octa] Préc.5 [mm] Cond.
2m. Res. Ros. Dir.2 Vit. Moy. Raf.3
23:00 2.3 2.3 -2.7 SO 3.7 -- 5.6 69 1024(0.9/3h) -- -- -- --
22:00 2.5 2.5 -3.2 O 3.7 -- 7.4 66 1023.8(1.1/3h) -- -- -- --
21:00 2.5 2.5 -3.6 O 3.7 -- 11.1 64 1023.3(1.0/3h) -- -- -- --
20:00 2.8 1.3 -3.8 O 5.6 -- 9.3 62 1023.1(0.8/3h) -- -- -- --
19:00 3.1 1.7 -4.4 O 5.6 -- 11.1 58 1022.7(0.6/3h) -- -- -- --
18:00 3.6 1.7 -5.8 O 7.4 -- 24.1 50 1022.2(1.1/3h) -- -- -- --
17:00 4.3 1.6 -5.3 O 11.1 -- 22.2 50 1022.2(1.2/3h) -- -- -- --
16:00 4.4 1 -5.0 O 14.8 -- 24.1 50 1022(1.3/3h) -- -- -- --
15:00 5.7 2.9 -2.9 O 13.0 -- 20.4 54 1021.2(1.0/3h) -- -- -- --
14:00 4.7 2.1 -1.3 O 11.1 -- 20.4 65 1020.8(1.3/3h) -- -- -- --
13:00 4.8 3.1 0.6 ONO 7.4 -- 16.7 74 1020.6(1.6/3h) -- -- -- --
12:00 3.9 1.5 0.5 ONO 9.3 -- 25.9 78 1020.2(1.9/3h) -- -- -- --
11:00 3.3 0.8 0.5 O 9.3 -- 18.5 82 1019.6(2.2/3h) -- -- -- --
10:00 2.0 -1.2 0.3 O 11.1 -- 22.2 88 1019(1.8/3h) -- -- -- --
09:00 0.8 -2.6 0.4 O 11.1 -- 25.9 97 1018.2(1.0/3h) -- -- -- --
08:00 0.6 -3.6 -0.1 O 14.8 -- 25.9 95 1017.3(0.5/3h) -- -- -- --
07:00 0.0 -4 -- O 13.0 -- 22.2 -- 1017.2(0.5/3h) -- -- -- --
06:00 0.0 -4 -0.1 O 13.0 -- 22.2 99 1017.2(0.4/3h) -- -- -- --
05:00 0.1 -3.5 -0.4 O 11.1 -- 16.7 96 1016.7(0.2/3h) -- -- -- --
04:00 -0.2 -3.4 -0.3 O 9.3 -- 18.5 99 1016.7(0.1/3h) -- -- -- --
03:00 -0.5 -3.7 -0.5 OSO 9.3 -- 16.7 100 1016.7(0.3/3h) -- -- -- --
02:00 -0.4 -3 -1.0 OSO 7.4 -- 11.1 96 1016.5(0.2/3h) -- -- -- --
01:00 -0.7 -3.4 -1.1 ONO 7.4 -- 16.7 97 1016.6(0.6/3h) -- -- -- --
00:00 -0.6 -2.5 -0.9 OSO 5.6 -- 18.5 98 1016.2(0.7/3h) -- -- -- --

1 Coordinated Universal Time. Actuellement il est 20:00 locale et 18:00 UTC.

2 Le vent souffle depuis la direction indiquée vers la direction oposée.

3 Les rafales max. sont disponible 40 min après l'heure du relevé.

4 Pour les stations d'altitude (plus de 600m) le géopotentiel du niveau le plus proche de la pression obligatoire est indiqué.

5 Les stations disposant d'un diffuseur peuvent indiquer "trace". Cela signifie que des précipitations ont touchés le sol mais que la quantité est inférieure à 0.1 mm.

Récapitulatif de la journée
Température [°C] Vent [km/h] Ensoleillement4 [h] Precipitations totale5 [mm] Pression [Hpa]
Min1 Max.2 Moy.3 Max. Min Max.
-1.0 6.4 0 25.9 0 h 0 min 0 1016.2 1024.0

1 Température minimale relevée entre 18:00 UTC la veille et 18:00 UTC le jour donné.

2 Température maximale relevée entre 06:00 UTC le jour donné et 06:00 UTC le lendemain.

3 Vent moyen de la journée basé sur les relevés horaires.

4 Ensoleillement en heures relevé entre 06:00 UTC la veille et 06:00 UTC le jour donné.

5 Précipitations totales tombées entre 06:00 UTC la jour donné et 06:00 UTC le lendemain.

Graphiques horaires